sensor_id;sensor_type;location;lat;lon;timestamp;P1;durP1;ratioP1;P2;durP2;ratioP2
68097;SDS011;54886;47.036;15.466;2024-03-08T00:02:14;13.95;;;7.57;;
68097;SDS011;54886;47.036;15.466;2024-03-08T00:04:40;11.73;;;7.25;;
68097;SDS011;54886;47.036;15.466;2024-03-08T00:07:05;12.45;;;7.40;;
68097;SDS011;54886;47.036;15.466;2024-03-08T00:09:32;12.73;;;7.32;;
68097;SDS011;54886;47.036;15.466;2024-03-08T00:11:57;12.38;;;7.20;;
68097;SDS011;54886;47.036;15.466;2024-03-08T00:14:23;12.85;;;6.78;;
68097;SDS011;54886;47.036;15.466;2024-03-08T00:16:48;12.40;;;7.40;;
68097;SDS011;54886;47.036;15.466;2024-03-08T00:19:14;14.02;;;7.88;;
68097;SDS011;54886;47.036;15.466;2024-03-08T00:21:39;13.38;;;7.65;;
68097;SDS011;54886;47.036;15.466;2024-03-08T00:24:04;12.38;;;7.63;;
68097;SDS011;54886;47.036;15.466;2024-03-08T00:26:30;13.20;;;6.75;;
68097;SDS011;54886;47.036;15.466;2024-03-08T00:28:55;11.98;;;7.07;;
68097;SDS011;54886;47.036;15.466;2024-03-08T00:31:21;12.35;;;7.40;;
68097;SDS011;54886;47.036;15.466;2024-03-08T00:33:46;11.95;;;6.90;;
68097;SDS011;54886;47.036;15.466;2024-03-08T00:36:12;11.93;;;7.05;;
68097;SDS011;54886;47.036;15.466;2024-03-08T00:38:37;13.70;;;6.97;;
68097;SDS011;54886;47.036;15.466;2024-03-08T00:41:03;12.75;;;7.00;;
68097;SDS011;54886;47.036;15.466;2024-03-08T00:43:28;13.30;;;7.60;;
68097;SDS011;54886;47.036;15.466;2024-03-08T00:45:55;12.27;;;7.32;;
68097;SDS011;54886;47.036;15.466;2024-03-08T00:48:21;11.00;;;6.25;;
68097;SDS011;54886;47.036;15.466;2024-03-08T00:50:46;11.68;;;6.95;;
68097;SDS011;54886;47.036;15.466;2024-03-08T00:53:12;14.55;;;7.60;;
68097;SDS011;54886;47.036;15.466;2024-03-08T00:55:37;12.60;;;7.15;;
68097;SDS011;54886;47.036;15.466;2024-03-08T00:58:04;11.95;;;7.13;;
68097;SDS011;54886;47.036;15.466;2024-03-08T01:00:29;11.40;;;6.80;;
68097;SDS011;54886;47.036;15.466;2024-03-08T01:02:55;13.30;;;7.75;;
68097;SDS011;54886;47.036;15.466;2024-03-08T01:05:20;12.40;;;7.05;;
68097;SDS011;54886;47.036;15.466;2024-03-08T01:07:46;12.05;;;7.15;;
68097;SDS011;54886;47.036;15.466;2024-03-08T01:10:11;13.57;;;7.38;;
68097;SDS011;54886;47.036;15.466;2024-03-08T01:12:37;13.82;;;6.97;;
68097;SDS011;54886;47.036;15.466;2024-03-08T01:15:03;12.55;;;7.05;;
68097;SDS011;54886;47.036;15.466;2024-03-08T01:17:29;11.57;;;6.95;;
68097;SDS011;54886;47.036;15.466;2024-03-08T01:19:54;11.20;;;6.38;;
68097;SDS011;54886;47.036;15.466;2024-03-08T01:22:19;12.70;;;7.30;;
68097;SDS011;54886;47.036;15.466;2024-03-08T01:24:45;10.07;;;6.43;;
68097;SDS011;54886;47.036;15.466;2024-03-08T01:27:10;12.02;;;7.10;;
68097;SDS011;54886;47.036;15.466;2024-03-08T01:29:37;10.98;;;6.72;;
68097;SDS011;54886;47.036;15.466;2024-03-08T01:32:03;11.75;;;6.88;;
68097;SDS011;54886;47.036;15.466;2024-03-08T01:34:28;11.88;;;7.20;;
68097;SDS011;54886;47.036;15.466;2024-03-08T01:36:54;11.88;;;6.78;;
68097;SDS011;54886;47.036;15.466;2024-03-08T01:39:22;11.52;;;6.72;;
68097;SDS011;54886;47.036;15.466;2024-03-08T01:41:48;13.02;;;7.50;;
68097;SDS011;54886;47.036;15.466;2024-03-08T01:44:13;12.63;;;7.20;;
68097;SDS011;54886;47.036;15.466;2024-03-08T01:46:43;12.38;;;6.80;;
68097;SDS011;54886;47.036;15.466;2024-03-08T01:49:09;13.13;;;7.28;;
68097;SDS011;54886;47.036;15.466;2024-03-08T01:51:36;12.88;;;6.50;;
68097;SDS011;54886;47.036;15.466;2024-03-08T01:54:01;12.23;;;6.70;;
68097;SDS011;54886;47.036;15.466;2024-03-08T01:56:29;12.32;;;6.95;;
68097;SDS011;54886;47.036;15.466;2024-03-08T01:58:54;11.73;;;6.38;;
68097;SDS011;54886;47.036;15.466;2024-03-08T02:01:20;11.55;;;6.68;;
68097;SDS011;54886;47.036;15.466;2024-03-08T02:03:45;11.60;;;6.70;;
68097;SDS011;54886;47.036;15.466;2024-03-08T02:06:11;10.43;;;6.40;;
68097;SDS011;54886;47.036;15.466;2024-03-08T02:08:39;12.10;;;6.97;;
68097;SDS011;54886;47.036;15.466;2024-03-08T02:11:06;11.95;;;6.78;;
68097;SDS011;54886;47.036;15.466;2024-03-08T02:13:32;13.43;;;7.32;;
68097;SDS011;54886;47.036;15.466;2024-03-08T02:15:58;11.85;;;6.97;;
68097;SDS011;54886;47.036;15.466;2024-03-08T02:18:25;13.77;;;6.90;;
68097;SDS011;54886;47.036;15.466;2024-03-08T02:20:51;14.10;;;7.50;;
68097;SDS011;54886;47.036;15.466;2024-03-08T02:23:20;13.02;;;7.25;;
68097;SDS011;54886;47.036;15.466;2024-03-08T02:25:46;11.93;;;6.93;;
68097;SDS011;54886;47.036;15.466;2024-03-08T02:28:13;13.07;;;6.93;;
68097;SDS011;54886;47.036;15.466;2024-03-08T02:30:39;13.80;;;7.88;;
68097;SDS011;54886;47.036;15.466;2024-03-08T02:33:05;11.88;;;7.38;;
68097;SDS011;54886;47.036;15.466;2024-03-08T02:35:31;12.00;;;7.40;;
68097;SDS011;54886;47.036;15.466;2024-03-08T02:37:57;11.00;;;6.95;;
68097;SDS011;54886;47.036;15.466;2024-03-08T02:40:23;10.98;;;6.25;;
68097;SDS011;54886;47.036;15.466;2024-03-08T02:42:49;11.02;;;6.85;;
68097;SDS011;54886;47.036;15.466;2024-03-08T02:45:14;12.35;;;7.50;;
68097;SDS011;54886;47.036;15.466;2024-03-08T02:47:39;11.73;;;7.13;;
68097;SDS011;54886;47.036;15.466;2024-03-08T02:50:05;15.35;;;8.88;;
68097;SDS011;54886;47.036;15.466;2024-03-08T02:52:33;15.20;;;8.50;;
68097;SDS011;54886;47.036;15.466;2024-03-08T02:54:59;15.98;;;8.63;;
68097;SDS011;54886;47.036;15.466;2024-03-08T02:57:24;15.75;;;8.45;;
68097;SDS011;54886;47.036;15.466;2024-03-08T02:59:49;18.25;;;9.13;;
68097;SDS011;54886;47.036;15.466;2024-03-08T03:02:15;15.32;;;8.73;;
68097;SDS011;54886;47.036;15.466;2024-03-08T03:04:41;15.30;;;8.57;;
68097;SDS011;54886;47.036;15.466;2024-03-08T03:07:08;15.88;;;9.30;;
68097;SDS011;54886;47.036;15.466;2024-03-08T03:09:33;16.75;;;9.80;;
68097;SDS011;54886;47.036;15.466;2024-03-08T03:11:59;15.90;;;9.35;;
68097;SDS011;54886;47.036;15.466;2024-03-08T03:14:24;15.88;;;9.68;;
68097;SDS011;54886;47.036;15.466;2024-03-08T03:16:51;14.57;;;8.82;;
68097;SDS011;54886;47.036;15.466;2024-03-08T03:19:17;15.05;;;8.88;;
68097;SDS011;54886;47.036;15.466;2024-03-08T03:21:42;13.93;;;7.80;;
68097;SDS011;54886;47.036;15.466;2024-03-08T03:24:08;14.23;;;8.70;;
68097;SDS011;54886;47.036;15.466;2024-03-08T03:26:36;14.07;;;8.10;;
68097;SDS011;54886;47.036;15.466;2024-03-08T03:29:04;15.40;;;9.23;;
68097;SDS011;54886;47.036;15.466;2024-03-08T03:31:31;12.68;;;8.23;;
68097;SDS011;54886;47.036;15.466;2024-03-08T03:33:56;14.60;;;8.38;;
68097;SDS011;54886;47.036;15.466;2024-03-08T03:36:26;15.63;;;9.27;;
68097;SDS011;54886;47.036;15.466;2024-03-08T03:38:53;22.52;;;10.02;;
68097;SDS011;54886;47.036;15.466;2024-03-08T03:41:29;16.60;;;9.13;;
68097;SDS011;54886;47.036;15.466;2024-03-08T03:43:55;17.25;;;8.73;;
68097;SDS011;54886;47.036;15.466;2024-03-08T03:46:20;15.95;;;8.68;;
68097;SDS011;54886;47.036;15.466;2024-03-08T03:48:46;14.82;;;8.38;;
68097;SDS011;54886;47.036;15.466;2024-03-08T03:51:11;12.85;;;7.97;;
68097;SDS011;54886;47.036;15.466;2024-03-08T03:53:37;12.93;;;7.57;;
68097;SDS011;54886;47.036;15.466;2024-03-08T03:56:02;12.95;;;7.38;;
68097;SDS011;54886;47.036;15.466;2024-03-08T03:58:31;13.32;;;7.72;;
68097;SDS011;54886;47.036;15.466;2024-03-08T04:00:57;13.05;;;7.15;;
68097;SDS011;54886;47.036;15.466;2024-03-08T04:03:23;13.15;;;7.57;;
68097;SDS011;54886;47.036;15.466;2024-03-08T04:05:48;12.73;;;7.57;;
68097;SDS011;54886;47.036;15.466;2024-03-08T04:08:14;13.45;;;7.43;;
68097;SDS011;54886;47.036;15.466;2024-03-08T04:10:39;13.85;;;7.75;;
68097;SDS011;54886;47.036;15.466;2024-03-08T04:13:07;12.77;;;7.22;;
68097;SDS011;54886;47.036;15.466;2024-03-08T04:15:32;14.40;;;7.78;;
68097;SDS011;54886;47.036;15.466;2024-03-08T04:17:58;14.05;;;8.13;;
68097;SDS011;54886;47.036;15.466;2024-03-08T04:20:25;19.63;;;8.75;;
68097;SDS011;54886;47.036;15.466;2024-03-08T04:22:51;14.68;;;8.02;;
68097;SDS011;54886;47.036;15.466;2024-03-08T04:25:16;15.02;;;8.68;;
68097;SDS011;54886;47.036;15.466;2024-03-08T04:27:42;16.23;;;9.60;;
68097;SDS011;54886;47.036;15.466;2024-03-08T04:30:08;15.20;;;8.65;;
68097;SDS011;54886;47.036;15.466;2024-03-08T04:32:33;16.10;;;8.98;;
68097;SDS011;54886;47.036;15.466;2024-03-08T04:34:59;19.48;;;9.15;;
68097;SDS011;54886;47.036;15.466;2024-03-08T04:37:28;18.65;;;9.75;;
68097;SDS011;54886;47.036;15.466;2024-03-08T04:39:56;15.00;;;8.75;;
68097;SDS011;54886;47.036;15.466;2024-03-08T04:42:22;15.35;;;9.13;;
68097;SDS011;54886;47.036;15.466;2024-03-08T04:44:48;15.20;;;9.18;;
68097;SDS011;54886;47.036;15.466;2024-03-08T04:47:13;15.40;;;9.18;;
68097;SDS011;54886;47.036;15.466;2024-03-08T04:49:38;16.60;;;9.23;;
68097;SDS011;54886;47.036;15.466;2024-03-08T04:52:05;16.23;;;9.30;;
68097;SDS011;54886;47.036;15.466;2024-03-08T04:54:32;17.05;;;9.25;;
68097;SDS011;54886;47.036;15.466;2024-03-08T04:56:57;14.85;;;9.02;;
68097;SDS011;54886;47.036;15.466;2024-03-08T04:59:25;16.60;;;8.87;;
68097;SDS011;54886;47.036;15.466;2024-03-08T05:01:50;18.27;;;9.27;;
68097;SDS011;54886;47.036;15.466;2024-03-08T05:04:16;15.52;;;8.80;;
68097;SDS011;54886;47.036;15.466;2024-03-08T05:06:41;16.50;;;8.70;;
68097;SDS011;54886;47.036;15.466;2024-03-08T05:09:07;17.77;;;9.57;;
68097;SDS011;54886;47.036;15.466;2024-03-08T05:11:41;14.77;;;9.02;;
68097;SDS011;54886;47.036;15.466;2024-03-08T05:14:08;14.40;;;9.02;;
68097;SDS011;54886;47.036;15.466;2024-03-08T05:16:34;18.42;;;9.05;;
68097;SDS011;54886;47.036;15.466;2024-03-08T05:19:00;13.98;;;8.73;;
68097;SDS011;54886;47.036;15.466;2024-03-08T05:21:25;15.73;;;9.00;;
68097;SDS011;54886;47.036;15.466;2024-03-08T05:23:51;15.93;;;9.40;;
68097;SDS011;54886;47.036;15.466;2024-03-08T05:26:16;13.70;;;8.23;;
68097;SDS011;54886;47.036;15.466;2024-03-08T05:28:42;15.15;;;8.80;;
68097;SDS011;54886;47.036;15.466;2024-03-08T05:31:07;18.25;;;10.52;;
68097;SDS011;54886;47.036;15.466;2024-03-08T05:33:33;14.98;;;9.50;;
68097;SDS011;54886;47.036;15.466;2024-03-08T05:36:01;16.42;;;9.25;;
68097;SDS011;54886;47.036;15.466;2024-03-08T05:38:27;15.82;;;9.40;;
68097;SDS011;54886;47.036;15.466;2024-03-08T05:40:53;17.70;;;9.27;;
68097;SDS011;54886;47.036;15.466;2024-03-08T05:43:19;16.48;;;9.98;;
68097;SDS011;54886;47.036;15.466;2024-03-08T05:45:45;17.40;;;10.02;;
68097;SDS011;54886;47.036;15.466;2024-03-08T05:48:11;14.68;;;9.20;;
68097;SDS011;54886;47.036;15.466;2024-03-08T05:50:38;16.67;;;9.02;;
68097;SDS011;54886;47.036;15.466;2024-03-08T05:53:04;16.80;;;9.73;;
68097;SDS011;54886;47.036;15.466;2024-03-08T05:55:32;15.55;;;9.02;;
68097;SDS011;54886;47.036;15.466;2024-03-08T05:58:00;16.83;;;9.27;;
68097;SDS011;54886;47.036;15.466;2024-03-08T06:00:26;16.50;;;9.75;;
68097;SDS011;54886;47.036;15.466;2024-03-08T06:02:52;16.20;;;9.27;;
68097;SDS011;54886;47.036;15.466;2024-03-08T06:05:17;15.25;;;9.30;;
68097;SDS011;54886;47.036;15.466;2024-03-08T06:07:42;15.93;;;9.70;;
68097;SDS011;54886;47.036;15.466;2024-03-08T06:10:08;17.10;;;9.82;;
68097;SDS011;54886;47.036;15.466;2024-03-08T06:12:38;13.50;;;8.27;;
68097;SDS011;54886;47.036;15.466;2024-03-08T06:15:07;16.90;;;10.38;;
68097;SDS011;54886;47.036;15.466;2024-03-08T06:17:34;16.10;;;8.65;;
68097;SDS011;54886;47.036;15.466;2024-03-08T06:20:00;16.15;;;9.73;;
68097;SDS011;54886;47.036;15.466;2024-03-08T06:22:25;18.70;;;11.18;;
68097;SDS011;54886;47.036;15.466;2024-03-08T06:24:50;17.40;;;10.02;;
68097;SDS011;54886;47.036;15.466;2024-03-08T06:27:16;16.92;;;10.25;;
68097;SDS011;54886;47.036;15.466;2024-03-08T06:29:42;19.23;;;11.30;;
68097;SDS011;54886;47.036;15.466;2024-03-08T06:32:08;17.63;;;10.25;;
68097;SDS011;54886;47.036;15.466;2024-03-08T06:34:33;18.05;;;10.75;;
68097;SDS011;54886;47.036;15.466;2024-03-08T06:39:27;16.35;;;9.27;;
68097;SDS011;54886;47.036;15.466;2024-03-08T06:41:56;16.05;;;9.82;;
68097;SDS011;54886;47.036;15.466;2024-03-08T06:44:22;16.80;;;10.43;;
68097;SDS011;54886;47.036;15.466;2024-03-08T06:46:47;20.83;;;10.95;;
68097;SDS011;54886;47.036;15.466;2024-03-08T06:49:13;18.73;;;11.30;;
68097;SDS011;54886;47.036;15.466;2024-03-08T06:51:38;18.38;;;11.32;;
68097;SDS011;54886;47.036;15.466;2024-03-08T06:54:06;19.50;;;11.65;;
68097;SDS011;54886;47.036;15.466;2024-03-08T06:56:33;21.05;;;11.70;;
68097;SDS011;54886;47.036;15.466;2024-03-08T06:59:02;17.75;;;10.95;;
68097;SDS011;54886;47.036;15.466;2024-03-08T07:01:29;19.73;;;11.23;;
68097;SDS011;54886;47.036;15.466;2024-03-08T07:03:59;19.95;;;11.95;;
68097;SDS011;54886;47.036;15.466;2024-03-08T07:06:25;20.80;;;11.20;;
68097;SDS011;54886;47.036;15.466;2024-03-08T07:08:51;20.45;;;11.65;;
68097;SDS011;54886;47.036;15.466;2024-03-08T07:11:16;20.63;;;11.50;;
68097;SDS011;54886;47.036;15.466;2024-03-08T07:13:44;21.33;;;12.00;;
68097;SDS011;54886;47.036;15.466;2024-03-08T07:16:10;23.35;;;12.77;;
68097;SDS011;54886;47.036;15.466;2024-03-08T07:18:37;19.98;;;12.20;;
68097;SDS011;54886;47.036;15.466;2024-03-08T07:23:30;21.48;;;11.90;;
68097;SDS011;54886;47.036;15.466;2024-03-08T07:26:17;20.15;;;12.07;;
68097;SDS011;54886;47.036;15.466;2024-03-08T07:28:43;22.58;;;13.20;;
68097;SDS011;54886;47.036;15.466;2024-03-08T07:31:08;23.10;;;14.32;;
68097;SDS011;54886;47.036;15.466;2024-03-08T07:33:36;21.70;;;13.00;;
68097;SDS011;54886;47.036;15.466;2024-03-08T07:36:03;25.25;;;13.93;;
68097;SDS011;54886;47.036;15.466;2024-03-08T07:38:29;23.83;;;13.23;;
68097;SDS011;54886;47.036;15.466;2024-03-08T07:40:54;24.75;;;13.95;;
68097;SDS011;54886;47.036;15.466;2024-03-08T07:43:21;27.40;;;15.27;;
68097;SDS011;54886;47.036;15.466;2024-03-08T07:45:47;26.92;;;14.55;;
68097;SDS011;54886;47.036;15.466;2024-03-08T07:48:12;24.33;;;14.07;;
68097;SDS011;54886;47.036;15.466;2024-03-08T07:50:38;22.45;;;13.52;;
68097;SDS011;54886;47.036;15.466;2024-03-08T07:53:04;22.65;;;13.77;;
68097;SDS011;54886;47.036;15.466;2024-03-08T07:55:34;22.85;;;13.73;;
68097;SDS011;54886;47.036;15.466;2024-03-08T07:58:00;22.45;;;13.35;;
68097;SDS011;54886;47.036;15.466;2024-03-08T08:00:28;27.48;;;14.57;;
68097;SDS011;54886;47.036;15.466;2024-03-08T08:02:55;23.20;;;13.75;;
68097;SDS011;54886;47.036;15.466;2024-03-08T08:05:21;24.88;;;13.52;;
68097;SDS011;54886;47.036;15.466;2024-03-08T08:07:46;22.48;;;12.70;;
68097;SDS011;54886;47.036;15.466;2024-03-08T08:10:15;21.77;;;12.38;;
68097;SDS011;54886;47.036;15.466;2024-03-08T08:12:48;22.83;;;13.00;;
68097;SDS011;54886;47.036;15.466;2024-03-08T08:15:14;20.40;;;12.60;;
68097;SDS011;54886;47.036;15.466;2024-03-08T08:17:40;22.55;;;13.70;;
68097;SDS011;54886;47.036;15.466;2024-03-08T08:20:07;23.80;;;13.80;;
68097;SDS011;54886;47.036;15.466;2024-03-08T08:22:33;19.73;;;11.85;;
68097;SDS011;54886;47.036;15.466;2024-03-08T08:24:58;25.35;;;13.75;;
68097;SDS011;54886;47.036;15.466;2024-03-08T08:27:24;22.42;;;13.18;;
68097;SDS011;54886;47.036;15.466;2024-03-08T08:29:51;20.38;;;13.35;;
68097;SDS011;54886;47.036;15.466;2024-03-08T08:32:16;21.85;;;12.80;;
68097;SDS011;54886;47.036;15.466;2024-03-08T08:34:43;20.60;;;12.75;;
68097;SDS011;54886;47.036;15.466;2024-03-08T08:37:09;19.73;;;11.82;;
68097;SDS011;54886;47.036;15.466;2024-03-08T08:39:35;22.00;;;12.35;;
68097;SDS011;54886;47.036;15.466;2024-03-08T08:42:00;19.23;;;11.68;;
68097;SDS011;54886;47.036;15.466;2024-03-08T08:44:27;21.50;;;12.70;;
68097;SDS011;54886;47.036;15.466;2024-03-08T08:46:53;19.83;;;11.68;;
68097;SDS011;54886;47.036;15.466;2024-03-08T08:49:18;20.13;;;11.75;;
68097;SDS011;54886;47.036;15.466;2024-03-08T08:51:51;21.13;;;12.35;;
68097;SDS011;54886;47.036;15.466;2024-03-08T08:54:16;18.63;;;11.45;;
68097;SDS011;54886;47.036;15.466;2024-03-08T08:56:42;19.75;;;12.02;;
68097;SDS011;54886;47.036;15.466;2024-03-08T08:59:12;19.90;;;12.18;;
68097;SDS011;54886;47.036;15.466;2024-03-08T09:01:44;19.65;;;12.10;;
68097;SDS011;54886;47.036;15.466;2024-03-08T09:04:12;19.92;;;11.55;;
68097;SDS011;54886;47.036;15.466;2024-03-08T09:06:37;20.90;;;11.98;;
68097;SDS011;54886;47.036;15.466;2024-03-08T09:09:03;18.65;;;11.43;;
68097;SDS011;54886;47.036;15.466;2024-03-08T09:11:30;18.63;;;11.35;;
68097;SDS011;54886;47.036;15.466;2024-03-08T09:13:56;17.38;;;11.00;;
68097;SDS011;54886;47.036;15.466;2024-03-08T09:16:21;20.73;;;11.52;;
68097;SDS011;54886;47.036;15.466;2024-03-08T09:18:46;19.45;;;11.38;;
68097;SDS011;54886;47.036;15.466;2024-03-08T09:21:13;18.73;;;10.60;;
68097;SDS011;54886;47.036;15.466;2024-03-08T09:23:39;19.08;;;11.65;;
68097;SDS011;54886;47.036;15.466;2024-03-08T09:26:05;22.80;;;11.82;;
68097;SDS011;54886;47.036;15.466;2024-03-08T09:28:34;18.42;;;11.30;;
68097;SDS011;54886;47.036;15.466;2024-03-08T09:31:00;18.58;;;11.40;;
68097;SDS011;54886;47.036;15.466;2024-03-08T09:33:26;19.95;;;11.15;;
68097;SDS011;54886;47.036;15.466;2024-03-08T09:35:53;18.38;;;11.38;;
68097;SDS011;54886;47.036;15.466;2024-03-08T09:38:19;18.60;;;11.82;;
68097;SDS011;54886;47.036;15.466;2024-03-08T09:40:45;18.52;;;11.10;;
68097;SDS011;54886;47.036;15.466;2024-03-08T09:43:11;18.67;;;11.23;;
68097;SDS011;54886;47.036;15.466;2024-03-08T09:45:39;17.88;;;10.63;;
68097;SDS011;54886;47.036;15.466;2024-03-08T09:48:12;18.25;;;11.43;;
68097;SDS011;54886;47.036;15.466;2024-03-08T09:50:41;18.58;;;9.82;;
68097;SDS011;54886;47.036;15.466;2024-03-08T09:53:07;16.35;;;9.85;;
68097;SDS011;54886;47.036;15.466;2024-03-08T09:55:37;18.17;;;9.82;;
68097;SDS011;54886;47.036;15.466;2024-03-08T09:58:05;17.98;;;10.27;;
68097;SDS011;54886;47.036;15.466;2024-03-08T10:01:01;15.02;;;9.18;;
68097;SDS011;54886;47.036;15.466;2024-03-08T10:03:29;16.00;;;9.52;;
68097;SDS011;54886;47.036;15.466;2024-03-08T10:05:58;17.92;;;10.07;;
68097;SDS011;54886;47.036;15.466;2024-03-08T10:08:27;17.30;;;9.80;;
68097;SDS011;54886;47.036;15.466;2024-03-08T10:10:55;15.57;;;9.73;;
68097;SDS011;54886;47.036;15.466;2024-03-08T10:13:23;18.65;;;10.40;;
68097;SDS011;54886;47.036;15.466;2024-03-08T10:15:51;15.43;;;9.45;;
68097;SDS011;54886;47.036;15.466;2024-03-08T10:18:17;16.48;;;9.95;;
68097;SDS011;54886;47.036;15.466;2024-03-08T10:20:43;16.48;;;9.77;;
68097;SDS011;54886;47.036;15.466;2024-03-08T10:23:08;14.98;;;8.98;;
68097;SDS011;54886;47.036;15.466;2024-03-08T10:25:35;14.75;;;9.15;;
68097;SDS011;54886;47.036;15.466;2024-03-08T10:28:03;12.88;;;7.85;;
68097;SDS011;54886;47.036;15.466;2024-03-08T10:30:29;14.50;;;8.80;;
68097;SDS011;54886;47.036;15.466;2024-03-08T10:32:55;14.88;;;8.55;;
68097;SDS011;54886;47.036;15.466;2024-03-08T10:35:20;14.25;;;8.93;;
68097;SDS011;54886;47.036;15.466;2024-03-08T10:37:47;15.50;;;9.25;;
68097;SDS011;54886;47.036;15.466;2024-03-08T10:40:17;15.93;;;9.20;;
68097;SDS011;54886;47.036;15.466;2024-03-08T10:42:51;15.27;;;9.60;;
68097;SDS011;54886;47.036;15.466;2024-03-08T10:45:30;14.73;;;9.10;;
68097;SDS011;54886;47.036;15.466;2024-03-08T10:48:10;14.95;;;9.15;;
68097;SDS011;54886;47.036;15.466;2024-03-08T10:50:41;14.15;;;9.13;;
68097;SDS011;54886;47.036;15.466;2024-03-08T10:53:10;14.35;;;9.07;;
68097;SDS011;54886;47.036;15.466;2024-03-08T10:55:36;14.88;;;8.75;;
68097;SDS011;54886;47.036;15.466;2024-03-08T10:58:05;14.60;;;9.07;;
68097;SDS011;54886;47.036;15.466;2024-03-08T11:00:33;15.05;;;9.10;;
68097;SDS011;54886;47.036;15.466;2024-03-08T11:02:59;16.65;;;7.90;;
68097;SDS011;54886;47.036;15.466;2024-03-08T11:10:46;13.10;;;7.25;;
68097;SDS011;54886;47.036;15.466;2024-03-08T11:16:12;10.70;;;6.43;;
68097;SDS011;54886;47.036;15.466;2024-03-08T11:18:54;11.73;;;7.32;;
68097;SDS011;54886;47.036;15.466;2024-03-08T11:21:25;13.90;;;8.07;;
68097;SDS011;54886;47.036;15.466;2024-03-08T11:24:07;11.77;;;7.72;;
68097;SDS011;54886;47.036;15.466;2024-03-08T11:26:36;12.68;;;7.93;;
68097;SDS011;54886;47.036;15.466;2024-03-08T11:32:05;13.35;;;7.55;;
68097;SDS011;54886;47.036;15.466;2024-03-08T11:34:34;14.73;;;7.95;;
68097;SDS011;54886;47.036;15.466;2024-03-08T11:37:00;14.20;;;8.55;;
68097;SDS011;54886;47.036;15.466;2024-03-08T11:39:26;14.10;;;7.90;;
68097;SDS011;54886;47.036;15.466;2024-03-08T11:41:53;13.02;;;8.25;;
68097;SDS011;54886;47.036;15.466;2024-03-08T11:44:20;14.13;;;8.07;;
68097;SDS011;54886;47.036;15.466;2024-03-08T11:46:45;12.82;;;7.70;;
68097;SDS011;54886;47.036;15.466;2024-03-08T11:49:14;13.63;;;7.22;;
68097;SDS011;54886;47.036;15.466;2024-03-08T11:51:40;14.77;;;7.65;;
68097;SDS011;54886;47.036;15.466;2024-03-08T11:54:06;11.25;;;7.13;;
68097;SDS011;54886;47.036;15.466;2024-03-08T11:56:38;9.70;;;6.45;;
68097;SDS011;54886;47.036;15.466;2024-03-08T11:59:03;10.90;;;6.43;;
68097;SDS011;54886;47.036;15.466;2024-03-08T12:01:30;10.65;;;6.05;;
68097;SDS011;54886;47.036;15.466;2024-03-08T12:03:56;11.18;;;6.63;;
68097;SDS011;54886;47.036;15.466;2024-03-08T12:06:24;11.15;;;6.50;;
68097;SDS011;54886;47.036;15.466;2024-03-08T12:08:50;11.43;;;6.65;;
68097;SDS011;54886;47.036;15.466;2024-03-08T12:11:19;10.85;;;6.60;;
68097;SDS011;54886;47.036;15.466;2024-03-08T12:13:48;10.68;;;6.65;;
68097;SDS011;54886;47.036;15.466;2024-03-08T12:16:17;12.68;;;6.80;;
68097;SDS011;54886;47.036;15.466;2024-03-08T12:18:50;9.10;;;6.03;;
68097;SDS011;54886;47.036;15.466;2024-03-08T12:21:17;10.57;;;6.47;;
68097;SDS011;54886;47.036;15.466;2024-03-08T12:23:45;10.75;;;6.57;;
68097;SDS011;54886;47.036;15.466;2024-03-08T12:28:40;11.13;;;6.50;;
68097;SDS011;54886;47.036;15.466;2024-03-08T12:31:09;13.00;;;7.07;;
68097;SDS011;54886;47.036;15.466;2024-03-08T12:36:18;12.85;;;7.25;;
68097;SDS011;54886;47.036;15.466;2024-03-08T12:38:48;12.47;;;7.37;;
68097;SDS011;54886;47.036;15.466;2024-03-08T12:41:17;14.20;;;7.65;;
68097;SDS011;54886;47.036;15.466;2024-03-08T12:43:44;13.63;;;8.35;;
68097;SDS011;54886;47.036;15.466;2024-03-08T12:46:16;12.57;;;6.93;;
68097;SDS011;54886;47.036;15.466;2024-03-08T12:48:42;10.80;;;7.07;;
68097;SDS011;54886;47.036;15.466;2024-03-08T12:51:12;11.52;;;7.18;;
68097;SDS011;54886;47.036;15.466;2024-03-08T12:53:38;11.77;;;7.43;;
68097;SDS011;54886;47.036;15.466;2024-03-08T12:56:05;11.00;;;6.80;;
68097;SDS011;54886;47.036;15.466;2024-03-08T12:58:33;10.88;;;7.13;;
68097;SDS011;54886;47.036;15.466;2024-03-08T13:01:01;13.95;;;7.95;;
68097;SDS011;54886;47.036;15.466;2024-03-08T13:03:29;11.68;;;7.57;;
68097;SDS011;54886;47.036;15.466;2024-03-08T13:05:55;11.57;;;7.30;;
68097;SDS011;54886;47.036;15.466;2024-03-08T13:08:22;11.13;;;7.50;;
68097;SDS011;54886;47.036;15.466;2024-03-08T13:10:50;10.98;;;6.97;;
68097;SDS011;54886;47.036;15.466;2024-03-08T13:13:16;11.48;;;7.57;;
68097;SDS011;54886;47.036;15.466;2024-03-08T13:15:42;12.27;;;7.30;;
68097;SDS011;54886;47.036;15.466;2024-03-08T13:18:08;11.35;;;6.97;;
68097;SDS011;54886;47.036;15.466;2024-03-08T13:20:34;11.20;;;6.78;;
68097;SDS011;54886;47.036;15.466;2024-03-08T13:25:27;11.05;;;6.43;;
68097;SDS011;54886;47.036;15.466;2024-03-08T13:27:53;12.10;;;7.05;;
68097;SDS011;54886;47.036;15.466;2024-03-08T13:30:21;12.60;;;7.55;;
68097;SDS011;54886;47.036;15.466;2024-03-08T13:32:51;11.75;;;7.05;;
68097;SDS011;54886;47.036;15.466;2024-03-08T13:35:17;12.35;;;7.30;;
68097;SDS011;54886;47.036;15.466;2024-03-08T13:37:49;11.02;;;7.00;;
68097;SDS011;54886;47.036;15.466;2024-03-08T13:40:15;11.20;;;6.90;;
68097;SDS011;54886;47.036;15.466;2024-03-08T13:42:43;11.20;;;6.90;;
68097;SDS011;54886;47.036;15.466;2024-03-08T13:45:09;12.07;;;8.00;;
68097;SDS011;54886;47.036;15.466;2024-03-08T13:47:39;10.57;;;7.13;;
68097;SDS011;54886;47.036;15.466;2024-03-08T13:50:06;13.75;;;7.55;;
68097;SDS011;54886;47.036;15.466;2024-03-08T13:52:33;12.68;;;7.15;;
68097;SDS011;54886;47.036;15.466;2024-03-08T13:54:59;12.82;;;7.80;;
68097;SDS011;54886;47.036;15.466;2024-03-08T13:57:25;12.55;;;7.68;;
68097;SDS011;54886;47.036;15.466;2024-03-08T13:59:52;13.57;;;6.75;;
68097;SDS011;54886;47.036;15.466;2024-03-08T14:02:18;11.20;;;7.45;;
68097;SDS011;54886;47.036;15.466;2024-03-08T14:04:43;12.43;;;7.38;;
68097;SDS011;54886;47.036;15.466;2024-03-08T14:07:08;12.15;;;7.38;;
68097;SDS011;54886;47.036;15.466;2024-03-08T14:09:36;11.27;;;6.97;;
68097;SDS011;54886;47.036;15.466;2024-03-08T14:12:08;11.85;;;7.50;;
68097;SDS011;54886;47.036;15.466;2024-03-08T14:14:33;13.15;;;7.68;;
68097;SDS011;54886;47.036;15.466;2024-03-08T14:17:01;12.05;;;7.30;;
68097;SDS011;54886;47.036;15.466;2024-03-08T14:19:28;12.23;;;7.88;;
68097;SDS011;54886;47.036;15.466;2024-03-08T14:21:53;12.30;;;7.63;;
68097;SDS011;54886;47.036;15.466;2024-03-08T14:24:19;12.52;;;7.63;;
68097;SDS011;54886;47.036;15.466;2024-03-08T14:26:45;12.48;;;7.82;;
68097;SDS011;54886;47.036;15.466;2024-03-08T14:29:13;12.45;;;8.07;;
68097;SDS011;54886;47.036;15.466;2024-03-08T14:31:39;11.88;;;7.28;;
68097;SDS011;54886;47.036;15.466;2024-03-08T14:34:05;11.60;;;7.50;;
68097;SDS011;54886;47.036;15.466;2024-03-08T14:36:32;12.30;;;7.70;;
68097;SDS011;54886;47.036;15.466;2024-03-08T14:38:59;12.48;;;7.85;;
68097;SDS011;54886;47.036;15.466;2024-03-08T14:41:24;13.30;;;7.75;;